Island Trees, New York
Current Conditions -  °F | °C
As of 12:53 PM on Monday 22 Dec 2014 (Local Time) from KFRG Reporting Station
Overcast Overcast  
Wind Chill: 42°   Ceiling: 1700
Heat Index: 46°   Visibility: 10mi
Dew Point: 38°   Wind: 7mph
Humidity: 73%   Direction: 80°E
Pressure: 30.25"   Gusts: NA
Location:  40.7255°N, 73.5165°W
Report Text: KFRG 221753Z 08006KT 10SM OVC017 08/03 A3025 RMK AO2 SLP245 T00780033 10083 20033 58022
Loading
Personal Weather Stations






























Interactive Weather Map New forecast layout! Learn more

10-Day Weather Forecast

Advertisements
Track Severe Weather on mobile